Time;durP1;ratioP1;P1;durP2;ratioP2;P2;SDS_P1;SDS_P2;PMS_P1;PMS_P2;Temp;Humidity;BMP_temperature;BMP_pressure;BME280_temperature;BME280_humidity;BME280_pressure;Samples;Min_cycle;Max_cycle;Signal;HPM_P1;HPM_P2
2022/09/07 00:00:38;;;;;;;3.20;3.10;;;17.60;1.00;;;;;;6275132;28;20332;-54
2022/09/07 00:03:41;;;;;;;3.20;3.00;;;17.60;1.00;;;;;;6273428;28;20244;-54
2022/09/07 00:06:44;;;;;;;3.10;3.00;;;17.50;1.00;;;;;;6279868;28;20409;-56
2022/09/07 00:09:56;;;;;;;3.37;3.20;;;17.50;1.00;;;;;;6279642;28;20745;-54
2022/09/07 00:12:59;;;;;;;3.53;3.17;;;17.50;1.00;;;;;;6309911;28;20677;-55
2022/09/07 00:16:07;;;;;;;3.13;2.87;;;17.50;1.00;;;;;;6277419;28;20739;-54
2022/09/07 00:19:10;;;;;;;2.90;2.80;;;17.50;1.00;;;;;;6281187;28;20288;-55
2022/09/07 00:22:13;;;;;;;6.47;3.03;;;17.40;1.00;;;;;;6283783;28;20237;-53
2022/09/07 00:25:16;;;;;;;2.83;2.67;;;17.40;1.00;;;;;;6268488;28;20368;-54
2022/09/07 00:28:19;;;;;;;3.20;2.97;;;17.30;1.00;;;;;;6271068;28;20780;-53
2022/09/07 00:31:24;;;;;;;3.70;3.40;;;17.30;1.00;;;;;;6266101;28;20242;-54
2022/09/07 00:34:27;;;;;;;3.20;3.00;;;17.30;1.00;;;;;;6273193;28;20294;-54
2022/09/07 00:37:29;;;;;;;3.10;2.90;;;17.30;1.00;;;;;;6284264;28;20237;-55
2022/09/07 00:40:32;;;;;;;3.30;3.10;;;17.20;1.00;;;;;;6295762;28;20659;-53
2022/09/07 00:43:39;;;;;;;3.17;2.97;;;17.20;1.00;;;;;;6274276;28;20267;-53
2022/09/07 00:46:44;;;;;;;2.93;2.83;;;17.10;1.00;;;;;;6291273;28;20276;-54
2022/09/07 00:49:51;;;;;;;3.70;3.40;;;17.00;1.00;;;;;;6282805;28;20242;-54
2022/09/07 00:52:58;;;;;;;3.20;2.90;;;16.90;1.00;;;;;;6283994;28;20229;-55
2022/09/07 00:56:03;;;;;;;3.47;3.17;;;16.90;1.00;;;;;;6283141;28;20625;-54
2022/09/07 00:59:07;;;;;;;5.43;2.90;;;16.90;1.00;;;;;;6269510;28;20445;-54
2022/09/07 01:02:15;;;;;;;3.20;3.07;;;16.80;1.00;;;;;;6274498;28;20382;-53
2022/09/07 01:05:26;;;;;;;2.87;2.77;;;16.70;1.00;;;;;;6269014;28;20438;-54
2022/09/07 01:08:30;;;;;;;3.23;2.90;;;16.70;1.00;;;;;;6284582;28;20371;-53
2022/09/07 01:11:34;;;;;;;4.57;3.00;;;16.70;1.00;;;;;;6273444;28;20389;-55
2022/09/07 01:14:42;;;;;;;3.60;3.37;;;16.70;1.00;;;;;;6273938;28;20258;-54
2022/09/07 01:18:01;;;;;;;3.23;3.00;;;16.60;1.00;;;;;;6292760;28;20594;-54
2022/09/07 01:21:20;;;;;;;3.20;3.00;;;16.60;1.00;;;;;;6278832;28;20239;-54
2022/09/07 01:24:40;;;;;;;3.47;3.27;;;16.60;1.00;;;;;;6273908;28;20395;-54
2022/09/07 01:28:09;;;;;;;3.07;2.97;;;16.60;1.00;;;;;;6263879;28;20242;-54
2022/09/07 01:31:22;;;;;;;3.20;2.90;;;16.60;1.00;;;;;;6272290;28;20260;-55
2022/09/07 01:34:26;;;;;;;4.60;4.30;;;16.60;1.00;;;;;;6275160;28;20725;-53
2022/09/07 01:37:37;;;;;;;3.80;3.60;;;16.50;1.00;;;;;;6276608;28;20241;-52
2022/09/07 01:40:48;;;;;;;3.40;3.17;;;16.40;1.00;;;;;;6276338;28;20238;-54
2022/09/07 01:43:56;;;;;;;3.40;3.20;;;16.40;1.00;;;;;;6284985;28;20233;-53
2022/09/07 01:47:05;;;;;;;3.80;3.03;;;16.40;1.00;;;;;;6279402;28;20236;-54
2022/09/07 01:50:15;;;;;;;3.17;2.97;;;16.40;1.00;;;;;;6273502;28;20728;-54
2022/09/07 01:53:23;;;;;;;3.63;3.30;;;16.40;1.00;;;;;;6284998;28;20233;-53
2022/09/07 01:56:31;;;;;;;3.33;3.23;;;16.30;1.00;;;;;;6284068;28;20348;-54
2022/09/07 01:59:43;;;;;;;3.40;3.30;;;16.30;1.00;;;;;;6271659;28;20572;-54
2022/09/07 02:02:51;;;;;;;4.37;3.00;;;16.30;1.00;;;;;;6273604;28;20230;-54
2022/09/07 02:05:59;;;;;;;3.40;3.20;;;16.30;1.00;;;;;;6271210;28;20253;-54
2022/09/07 02:09:06;;;;;;;3.40;3.10;;;16.20;1.00;;;;;;6271685;28;20276;-54
2022/09/07 02:12:14;;;;;;;3.33;3.23;;;16.20;1.00;;;;;;6279520;28;20519;-53
2022/09/07 02:15:23;;;;;;;5.27;3.00;;;16.20;1.00;;;;;;6277566;28;20253;-54
2022/09/07 02:18:32;;;;;;;4.70;3.33;;;16.20;1.00;;;;;;6278956;28;20241;-54
2022/09/07 02:21:37;;;;;;;3.20;3.00;;;16.10;1.00;;;;;;6279522;28;20293;-53
2022/09/07 02:24:45;;;;;;;3.27;3.17;;;16.10;1.00;;;;;;6261535;28;20391;-54
2022/09/07 02:27:53;;;;;;;2.80;2.70;;;16.10;1.00;;;;;;6271751;28;20233;-53
2022/09/07 02:30:57;;;;;;;3.10;2.90;;;16.00;1.00;;;;;;6271371;28;20251;-53
2022/09/07 02:34:01;;;;;;;3.83;3.37;;;16.00;1.00;;;;;;6262923;28;20237;-54
2022/09/07 02:37:09;;;;;;;3.23;3.10;;;15.90;1.00;;;;;;6265603;28;20229;-53
2022/09/07 02:40:13;;;;;;;3.50;3.20;;;15.90;1.00;;;;;;6267650;28;20234;-54
2022/09/07 02:43:16;;;;;;;3.57;2.90;;;16.00;1.00;;;;;;6268028;28;20283;-54
2022/09/07 02:46:31;;;;;;;3.50;3.30;;;16.00;1.00;;;;;;6274940;28;20225;-55
2022/09/07 02:50:09;;;;;;;3.20;3.07;;;15.90;1.00;;;;;;6274916;28;20264;-54
2022/09/07 02:53:39;;;;;;;5.97;3.47;;;15.80;1.00;;;;;;6271222;28;20226;-55
2022/09/07 02:56:58;;;;;;;4.57;3.40;;;15.80;1.00;;;;;;6267289;28;20395;-53
2022/09/07 03:00:07;;;;;;;4.17;3.97;;;15.80;1.00;;;;;;6249194;28;20279;-56
2022/09/07 03:03:20;;;;;;;3.30;3.10;;;15.80;1.00;;;;;;6263436;28;20709;-53
2022/09/07 03:06:28;;;;;;;4.93;3.53;;;15.80;1.00;;;;;;6263558;28;20723;-53
2022/09/07 03:09:37;;;;;;;6.70;3.60;;;15.80;1.00;;;;;;6271453;28;20720;-54
2022/09/07 03:12:43;;;;;;;6.10;3.47;;;15.80;1.00;;;;;;6258880;28;20900;-53
2022/09/07 03:15:46;;;;;;;3.90;3.50;;;15.80;1.00;;;;;;6282065;28;20464;-54
2022/09/07 03:18:55;;;;;;;5.03;3.70;;;15.70;1.00;;;;;;6282363;28;20225;-54
2022/09/07 03:21:58;;;;;;;3.63;3.40;;;15.70;1.00;;;;;;6279366;28;20244;-57
2022/09/07 03:25:03;;;;;;;3.90;3.60;;;15.80;1.00;;;;;;6279837;28;20320;-54
2022/09/07 03:28:07;;;;;;;3.67;3.40;;;15.70;1.00;;;;;;6271685;28;20425;-53
2022/09/07 03:31:10;;;;;;;3.63;3.43;;;15.70;1.00;;;;;;6261764;28;20229;-54
2022/09/07 03:34:16;;;;;;;6.67;3.70;;;15.70;1.00;;;;;;6261022;28;20324;-54
2022/09/07 03:37:19;;;;;;;3.67;3.37;;;15.60;1.00;;;;;;6284313;28;20368;-54
2022/09/07 03:40:22;;;;;;;3.70;3.50;;;15.60;1.00;;;;;;6270816;28;20794;-54
2022/09/07 03:43:25;;;;;;;4.70;3.83;;;15.60;1.00;;;;;;6292919;28;20848;-54
2022/09/07 03:46:28;;;;;;;4.10;3.80;;;15.50;1.00;;;;;;6277935;28;20302;-54
2022/09/07 03:49:32;;;;;;;4.07;3.70;;;15.50;1.00;;;;;;6275949;28;20237;-54
2022/09/07 03:52:35;;;;;;;4.30;4.00;;;15.50;1.00;;;;;;6281713;28;20837;-55
2022/09/07 03:55:39;;;;;;;8.00;3.60;;;15.40;1.00;;;;;;6278695;28;20244;-54
2022/09/07 03:58:42;;;;;;;4.23;3.83;;;15.50;1.00;;;;;;6282123;28;20271;-50
2022/09/07 04:01:45;;;;;;;3.73;3.43;;;15.50;1.00;;;;;;6271202;28;20255;-53
2022/09/07 04:04:49;;;;;;;4.23;3.83;;;15.50;1.00;;;;;;6284446;28;20245;-53
2022/09/07 04:07:52;;;;;;;4.27;3.97;;;15.50;1.00;;;;;;6279079;28;20342;-54
2022/09/07 04:10:57;;;;;;;4.30;3.90;;;15.50;1.00;;;;;;6294780;28;20633;-56
2022/09/07 04:13:59;;;;;;;7.97;3.73;;;15.50;1.00;;;;;;6282871;28;20307;-55
2022/09/07 04:17:04;;;;;;;3.90;3.70;;;15.50;1.00;;;;;;6279658;28;20698;-53
2022/09/07 04:20:09;;;;;;;4.77;3.67;;;15.50;1.00;;;;;;6279034;28;20229;-54
2022/09/07 04:23:13;;;;;;;4.03;3.73;;;15.40;1.00;;;;;;6283071;28;20237;-55
2022/09/07 04:26:17;;;;;;;4.20;3.80;;;15.50;1.00;;;;;;6285731;28;20950;-54
2022/09/07 04:29:20;;;;;;;3.97;3.73;;;15.40;1.00;;;;;;6286765;28;20225;-54
2022/09/07 04:32:24;;;;;;;4.50;4.10;;;15.40;1.00;;;;;;6279694;28;20902;-55
2022/09/07 04:35:28;;;;;;;3.93;3.50;;;15.30;1.00;;;;;;6285550;28;20336;-54
2022/09/07 04:38:31;;;;;;;4.43;4.13;;;15.30;1.00;;;;;;6283426;28;20371;-54
2022/09/07 04:41:34;;;;;;;4.10;3.60;;;15.30;1.00;;;;;;6282328;28;20286;-53
2022/09/07 04:44:37;;;;;;;6.53;4.07;;;15.20;1.00;;;;;;6273827;28;20237;-54
2022/09/07 04:47:40;;;;;;;4.33;4.00;;;15.20;1.00;;;;;;6289966;28;20265;-53
2022/09/07 04:50:44;;;;;;;4.00;3.70;;;15.20;1.00;;;;;;6279509;28;20242;-54
2022/09/07 04:53:49;;;;;;;4.10;3.70;;;15.10;1.00;;;;;;6278117;28;20698;-53
2022/09/07 04:56:52;;;;;;;4.30;4.10;;;15.20;1.00;;;;;;6285524;28;20252;-56
2022/09/07 04:59:55;;;;;;;5.23;3.93;;;15.10;1.00;;;;;;6272751;28;20253;-54
2022/09/07 05:02:58;;;;;;;4.00;3.80;;;15.20;1.00;;;;;;6280558;28;20376;-54
2022/09/07 05:06:02;;;;;;;7.40;4.03;;;15.10;1.00;;;;;;6274886;28;20469;-61
2022/09/07 05:09:05;;;;;;;5.63;4.20;;;15.10;1.00;;;;;;6286162;28;20312;-55
2022/09/07 05:12:08;;;;;;;11.17;3.83;;;15.10;1.00;;;;;;6291255;28;20261;-54
2022/09/07 05:15:11;;;;;;;6.00;4.17;;;15.10;1.00;;;;;;6282987;28;20229;-55
2022/09/07 05:18:14;;;;;;;5.80;3.73;;;15.10;1.00;;;;;;6284041;28;20511;-54
2022/09/07 05:21:20;;;;;;;5.03;4.50;;;15.10;1.00;;;;;;6290983;28;20237;-53
2022/09/07 05:24:23;;;;;;;7.43;4.37;;;15.10;1.00;;;;;;6282854;28;20241;-54
2022/09/07 05:27:26;;;;;;;4.53;4.00;;;15.00;1.00;;;;;;6274474;28;20229;-54
2022/09/07 05:30:29;;;;;;;4.37;4.07;;;15.10;1.00;;;;;;6281235;28;20245;-54
2022/09/07 05:33:56;;;;;;;7.60;4.50;;;15.10;1.00;;;;;;6275284;28;20486;-53
2022/09/07 05:37:21;;;;;;;11.03;4.20;;;15.10;1.00;;;;;;6281890;28;20263;-53
2022/09/07 05:40:24;;;;;;;7.37;4.70;;;15.20;1.00;;;;;;6282592;28;20387;-53
2022/09/07 05:43:27;;;;;;;6.40;4.70;;;15.20;1.00;;;;;;6284159;28;20480;-53
2022/09/07 05:46:30;;;;;;;8.13;4.23;;;15.20;1.00;;;;;;6282621;28;20360;-53
2022/09/07 05:49:33;;;;;;;5.00;4.50;;;15.20;1.00;;;;;;6272083;28;20284;-53
2022/09/07 05:52:38;;;;;;;5.83;4.20;;;15.30;1.00;;;;;;6275757;28;20237;-53
2022/09/07 05:55:40;;;;;;;7.97;4.80;;;15.30;1.00;;;;;;6269489;28;20368;-54
2022/09/07 05:58:48;;;;;;;6.13;4.53;;;15.40;1.00;;;;;;6274827;28;20298;-53
2022/09/07 06:01:50;;;;;;;5.53;4.30;;;15.50;1.00;;;;;;6275241;28;20329;-52
2022/09/07 06:04:53;;;;;;;4.93;4.47;;;15.50;1.00;;;;;;6281684;28;20248;-53
2022/09/07 06:07:58;;;;;;;4.73;4.33;;;15.60;1.00;;;;;;6275309;28;20716;-54
2022/09/07 06:11:05;;;;;;;9.03;4.50;;;15.80;1.00;;;;;;6280982;28;20789;-54
2022/09/07 06:14:08;;;;;;;4.50;4.10;;;16.10;1.00;;;;;;6280597;28;20324;-53
2022/09/07 06:17:11;;;;;;;4.50;4.10;;;16.30;1.00;;;;;;6277623;28;20291;-53
2022/09/07 06:20:14;;;;;;;6.13;4.07;;;16.40;1.00;;;;;;6280429;28;20738;-53
2022/09/07 06:23:19;;;;;;;5.00;4.30;;;16.40;1.00;;;;;;6279416;28;20243;-54
2022/09/07 06:26:22;;;;;;;5.20;4.33;;;16.50;1.00;;;;;;6281354;28;20257;-53
2022/09/07 06:29:26;;;;;;;5.17;4.60;;;16.70;1.00;;;;;;6284251;28;20237;-53
2022/09/07 06:32:29;;;;;;;9.10;4.30;;;17.00;1.00;;;;;;6279479;28;20326;-54
2022/09/07 06:35:55;;;;;;;13.60;4.80;;;17.10;1.00;;;;;;6276057;28;20569;-53
2022/09/07 06:39:01;;;;;;;4.77;4.30;;;17.10;1.00;;;;;;6281100;28;20626;-52
2022/09/07 06:42:04;;;;;;;7.23;4.30;;;17.10;1.00;;;;;;6275968;28;20817;-54
2022/09/07 06:45:09;;;;;;;4.70;4.30;;;17.20;1.00;;;;;;6278216;28;20239;-54
2022/09/07 06:48:12;;;;;;;6.00;5.07;;;17.30;1.00;;;;;;6272819;28;20328;-53
2022/09/07 06:51:18;;;;;;;5.80;4.17;;;17.30;1.00;;;;;;6278673;28;20283;-54
2022/09/07 06:54:22;;;;;;;4.90;4.47;;;17.40;1.00;;;;;;6274545;28;20354;-52
2022/09/07 06:57:45;;;;;;;8.27;4.70;;;17.40;1.00;;;;;;6281660;28;20304;-54
2022/09/07 07:00:48;;;;;;;5.20;4.20;;;17.50;1.00;;;;;;6287033;28;20727;-53
2022/09/07 07:03:52;;;;;;;7.53;4.57;;;17.70;1.00;;;;;;6275811;28;20241;-53
2022/09/07 07:06:55;;;;;;;5.00;4.50;;;17.80;1.00;;;;;;6277906;28;20781;-54
2022/09/07 07:10:01;;;;;;;6.30;4.60;;;17.90;1.00;;;;;;6272342;28;20300;-54
2022/09/07 07:13:04;;;;;;;4.90;4.60;;;17.90;1.00;;;;;;6277092;28;20453;-53
2022/09/07 07:16:08;;;;;;;5.20;4.87;;;17.90;1.00;;;;;;6288482;28;20363;-54
2022/09/07 07:19:16;;;;;;;9.17;4.83;;;18.10;1.00;;;;;;6281878;28;20577;-54
2022/09/07 07:22:20;;;;;;;6.00;4.83;;;18.00;1.00;;;;;;6279467;28;20344;-54
2022/09/07 07:25:44;;;;;;;5.47;4.97;;;18.00;1.00;;;;;;6278881;28;20244;-52
2022/09/07 07:28:48;;;;;;;5.23;4.77;;;18.00;1.00;;;;;;6280700;28;20278;-54
2022/09/07 07:32:08;;;;;;;6.60;5.10;;;18.10;1.00;;;;;;6275927;28;20245;-53
2022/09/07 07:35:11;;;;;;;7.60;4.83;;;18.10;1.00;;;;;;6274887;28;20344;-53
2022/09/07 07:38:14;;;;;;;9.87;5.70;;;18.10;1.00;;;;;;6279570;28;20275;-53
2022/09/07 07:41:38;;;;;;;5.53;5.17;;;18.20;1.00;;;;;;6273206;28;20303;-53
2022/09/07 07:45:05;;;;;;;8.27;5.27;;;18.30;1.00;;;;;;6277255;28;20229;-53
2022/09/07 07:48:33;;;;;;;5.43;5.03;;;18.30;1.00;;;;;;6273126;28;20240;-54
2022/09/07 07:51:36;;;;;;;8.53;5.10;;;18.50;1.00;;;;;;6267206;28;20726;-54
2022/09/07 07:54:58;;;;;;;5.73;5.27;;;18.60;1.00;;;;;;6251291;28;20632;-53
2022/09/07 07:58:03;;;;;;;10.23;5.70;;;18.70;1.00;;;;;;6282430;28;20237;-53
2022/09/07 08:01:09;;;;;;;6.40;5.80;;;18.80;1.00;;;;;;6274757;28;20241;-53
2022/09/07 08:04:11;;;;;;;8.10;5.80;;;18.80;1.00;;;;;;6280620;28;20624;-53
2022/09/07 08:07:15;;;;;;;6.77;5.33;;;18.90;1.00;;;;;;6276060;28;20800;-54
2022/09/07 08:10:17;;;;;;;5.50;5.03;;;18.90;1.00;;;;;;6279172;28;20713;-54
2022/09/07 08:13:22;;;;;;;5.47;5.10;;;19.00;1.00;;;;;;6271377;28;20883;-53
2022/09/07 08:16:25;;;;;;;6.27;5.70;;;19.20;1.00;;;;;;6276921;28;20233;-53
2022/09/07 08:19:28;;;;;;;7.07;5.03;;;19.30;1.00;;;;;;6277410;28;20237;-55
2022/09/07 08:22:31;;;;;;;6.17;5.60;;;19.40;1.00;;;;;;6275199;28;20776;-54
2022/09/07 08:25:36;;;;;;;7.27;5.60;;;19.60;1.00;;;;;;6274963;28;20591;-54
2022/09/07 08:28:42;;;;;;;11.53;5.47;;;19.60;1.00;;;;;;6266411;28;20237;-54
2022/09/07 08:31:45;;;;;;;5.93;5.40;;;19.70;1.00;;;;;;6276204;28;21020;-54
2022/09/07 08:34:48;;;;;;;8.63;5.57;;;19.70;1.00;;;;;;6274852;28;20251;-53
2022/09/07 08:37:51;;;;;;;6.17;5.10;;;19.80;1.00;;;;;;6276792;28;20233;-54
2022/09/07 08:40:54;;;;;;;5.47;5.07;;;19.90;1.00;;;;;;6276635;28;20268;-54
2022/09/07 08:44:01;;;;;;;11.60;6.13;;;20.10;1.00;;;;;;6280000;28;20244;-54
2022/09/07 08:47:13;;;;;;;8.73;6.10;;;20.20;1.00;;;;;;6276226;28;20699;-54
2022/09/07 08:50:20;;;;;;;5.60;5.13;;;20.20;1.00;;;;;;6279400;28;20238;-54
2022/09/07 08:53:24;;;;;;;8.70;6.63;;;20.30;1.00;;;;;;6279491;28;20277;-54
2022/09/07 08:56:30;;;;;;;6.93;5.80;;;20.40;1.00;;;;;;6286314;28;20229;-54
2022/09/07 09:00:02;;;;;;;6.20;5.43;;;20.50;1.00;;;;;;6275915;28;20236;-54
2022/09/07 09:03:07;;;;;;;7.00;6.23;;;20.70;1.00;;;;;;6282851;28;20247;-55
2022/09/07 09:06:43;;;;;;;8.00;6.50;;;20.80;1.00;;;;;;6289876;28;20241;-55
2022/09/07 09:10:16;;;;;;;8.57;6.03;;;21.10;1.00;;;;;;6284852;28;20605;-54
2022/09/07 09:13:24;;;;;;;5.90;5.47;;;21.30;1.00;;;;;;6278264;28;20998;-54
2022/09/07 09:16:35;;;;;;;7.63;6.70;;;21.50;1.00;;;;;;6278970;28;20230;-53
2022/09/07 09:19:52;;;;;;;6.93;5.73;;;21.60;1.00;;;;;;6275666;28;20369;-53
2022/09/07 09:23:01;;;;;;;6.67;5.87;;;21.70;1.00;;;;;;6278438;28;20252;-55
2022/09/07 09:26:09;;;;;;;6.50;6.00;;;21.90;1.00;;;;;;6283041;28;20226;-54
2022/09/07 09:29:14;;;;;;;11.67;5.70;;;22.10;1.00;;;;;;6282746;28;20721;-54
2022/09/07 09:32:38;;;;;;;7.07;6.57;;;22.10;1.00;;;;;;6284058;28;20406;-55
2022/09/07 09:35:48;;;;;;;7.23;6.47;;;22.10;1.00;;;;;;6280779;28;20310;-54
2022/09/07 09:38:51;;;;;;;8.27;6.00;;;22.10;1.00;;;;;;6277563;28;20233;-53
2022/09/07 09:41:56;;;;;;;6.93;6.13;;;22.20;1.00;;;;;;6282271;28;20244;-54
2022/09/07 09:45:03;;;;;;;5.87;5.37;;;22.20;1.00;;;;;;6282558;28;20233;-55
2022/09/07 09:48:16;;;;;;;7.13;6.17;;;22.30;1.00;;;;;;6278584;28;20240;-54
2022/09/07 09:51:20;;;;;;;8.30;6.03;;;22.50;1.00;;;;;;6281866;28;20230;-53
2022/09/07 09:54:44;;;;;;;6.70;6.10;;;22.70;1.00;;;;;;6281252;28;20273;-55
2022/09/07 09:57:50;;;;;;;6.97;6.27;;;22.70;1.00;;;;;;6280954;28;20232;-54
2022/09/07 10:01:23;;;;;;;7.20;6.50;;;22.90;1.00;;;;;;6276275;28;20237;-54
2022/09/07 10:04:33;;;;;;;7.80;7.03;;;23.10;1.00;;;;;;6281409;28;20226;-54
2022/09/07 10:07:36;;;;;;;7.53;6.77;;;23.20;1.00;;;;;;6277857;28;20238;-54
2022/09/07 10:10:50;;;;;;;8.40;7.70;;;23.50;1.00;;;;;;6280950;28;20252;-53
2022/09/07 10:13:56;;;;;;;9.10;7.33;;;23.70;1.00;;;;;;6282137;28;20245;-54
2022/09/07 10:17:00;;;;;;;8.30;7.60;;;23.80;1.00;;;;;;6278991;28;20241;-54
2022/09/07 10:20:32;;;;;;;7.83;7.27;;;24.00;1.00;;;;;;6282134;28;20245;-55
2022/09/07 10:23:35;;;;;;;8.20;7.50;;;24.20;1.00;;;;;;6272095;28;20245;-53
2022/09/07 10:26:39;;;;;;;8.80;8.10;;;24.40;1.00;;;;;;6283236;28;20256;-61
2022/09/07 10:29:42;;;;;;;8.43;7.80;;;24.40;1.00;;;;;;6288027;28;20293;-54
2022/09/07 10:32:58;;;;;;;11.53;9.00;;;24.60;1.00;;;;;;6280302;28;20237;-54
2022/09/07 10:36:14;;;;;;;8.80;7.80;;;24.80;1.00;;;;;;6279073;28;20229;-54
2022/09/07 10:39:22;;;;;;;8.20;7.57;;;24.70;1.00;;;;;;6278872;28;20385;-56
2022/09/07 10:42:28;;;;;;;8.23;7.53;;;24.50;1.00;;;;;;6287194;28;20234;-49
2022/09/07 10:45:43;;;;;;;10.10;8.60;;;24.30;1.00;;;;;;6279137;28;20230;-53
2022/09/07 10:48:56;;;;;;;9.33;8.40;;;24.40;1.00;;;;;;6276579;28;20245;-55
2022/09/07 10:52:09;;;;;;;9.17;8.40;;;24.30;1.00;;;;;;6287293;28;20241;-54
2022/09/07 10:55:17;;;;;;;8.50;7.90;;;24.30;1.00;;;;;;6279411;28;20699;-54
2022/09/07 10:58:28;;;;;;;7.73;7.13;;;24.40;1.00;;;;;;6292142;28;20240;-53
2022/09/07 11:01:58;;;;;;;8.10;7.50;;;24.50;1.00;;;;;;6255587;28;20234;-55
2022/09/07 11:05:11;;;;;;;8.27;7.67;;;24.60;1.00;;;;;;6275178;28;20237;-55
2022/09/07 11:08:32;;;;;;;9.10;8.40;;;24.70;1.00;;;;;;6279569;28;20237;-54
2022/09/07 11:12:02;;;;;;;7.20;6.70;;;24.70;1.00;;;;;;6274145;28;20265;-54
2022/09/07 11:15:18;;;;;;;8.90;8.30;;;24.70;1.00;;;;;;6278972;28;20240;-55
2022/09/07 11:18:29;;;;;;;10.67;7.50;;;24.80;1.00;;;;;;6272211;28;20238;-53
2022/09/07 11:21:38;;;;;;;8.87;7.83;;;24.90;1.00;;;;;;6274938;28;20241;-54
2022/09/07 11:25:17;;;;;;;9.67;8.87;;;25.00;1.00;;;;;;6276338;28;20247;-53
2022/09/07 11:28:45;;;;;;;9.20;8.37;;;24.90;1.00;;;;;;6276679;28;20232;-53
2022/09/07 11:31:53;;;;;;;7.80;7.13;;;25.00;1.00;;;;;;6279529;28;20644;-53
2022/09/07 11:35:03;;;;;;;9.30;8.40;;;25.10;1.00;;;;;;6276796;28;20271;-53
2022/09/07 11:38:13;;;;;;;9.97;8.03;;;25.10;1.00;;;;;;6273885;28;20400;-54
2022/09/07 11:41:24;;;;;;;8.67;7.97;;;25.40;1.00;;;;;;6272513;28;20799;-55
2022/09/07 11:44:32;;;;;;;9.37;8.60;;;25.40;1.00;;;;;;6265790;28;20230;-55
2022/09/07 11:47:39;;;;;;;7.80;7.20;;;25.50;1.00;;;;;;6274237;28;20744;-55
2022/09/07 11:50:46;;;;;;;8.03;7.20;;;25.70;1.00;;;;;;6276911;28;20644;-54
2022/09/07 11:53:54;;;;;;;9.37;7.70;;;25.80;1.00;;;;;;6282012;28;20252;-54
2022/09/07 11:57:22;;;;;;;8.30;7.60;;;25.90;1.00;;;;;;6280953;28;20233;-55
2022/09/07 12:00:33;;;;;;;7.57;7.27;;;26.00;1.00;;;;;;6278246;28;20233;-54
2022/09/07 12:04:18;;;;;;;8.17;7.67;;;26.00;1.00;;;;;;6280883;28;20635;-54
2022/09/07 12:08:00;;;;;;;8.20;7.50;;;26.00;1.00;;;;;;6188097;28;20237;-53
2022/09/07 12:11:23;;;;;;;9.13;8.47;;;26.00;1.00;;;;;;6278655;28;20232;-54
2022/09/07 12:14:43;;;;;;;9.27;8.17;;;25.90;1.00;;;;;;6277702;28;20620;-54
2022/09/07 12:18:14;;;;;;;9.27;8.47;;;26.00;1.00;;;;;;6275148;28;20237;-54
2022/09/07 12:21:41;;;;;;;9.37;8.67;;;26.00;1.00;;;;;;6275752;28;20332;-53
2022/09/07 12:24:45;;;;;;;9.10;8.40;;;26.10;1.00;;;;;;6280374;28;20242;-54
2022/09/07 12:27:51;;;;;;;10.20;9.50;;;26.30;1.00;;;;;;6282010;28;21456;-55
2022/09/07 12:31:13;;;;;;;10.10;9.10;;;26.30;1.00;;;;;;6284742;28;20233;-55
2022/09/07 12:34:39;;;;;;;10.17;9.43;;;26.60;1.00;;;;;;6281542;28;20237;-54
2022/09/07 12:37:43;;;;;;;9.43;8.50;;;26.70;1.00;;;;;;6278465;28;20260;-55
2022/09/07 12:40:48;;;;;;;9.03;8.47;;;26.70;1.00;;;;;;6283797;28;20272;-55
2022/09/07 12:44:07;;;;;;;9.73;8.83;;;26.70;1.00;;;;;;6279580;28;20234;-55
2022/09/07 12:47:29;;;;;;;10.73;9.77;;;26.60;1.00;;;;;;6291770;28;20773;-55
2022/09/07 12:50:34;;;;;;;10.03;9.07;;;26.60;1.00;;;;;;6281313;28;20237;-54
2022/09/07 12:53:51;;;;;;;9.80;9.20;;;26.30;1.00;;;;;;6283524;28;20248;-54
2022/09/07 12:57:03;;;;;;;9.47;8.67;;;26.30;1.00;;;;;;6273905;28;20230;-55
2022/09/07 13:00:43;;;;;;;8.87;8.27;;;26.30;1.00;;;;;;6272538;28;20301;-53
2022/09/07 13:04:12;;;;;;;8.83;8.27;;;26.20;1.00;;;;;;6275846;28;20242;-53
2022/09/07 13:07:50;;;;;;;9.07;8.47;;;26.20;1.00;;;;;;6285386;28;20690;-54
2022/09/07 13:10:53;;;;;;;9.67;8.87;;;26.10;1.00;;;;;;6273232;28;20631;-54
2022/09/07 13:13:59;;;;;;;10.23;9.37;;;25.90;1.00;;;;;;6277440;28;20240;-53
2022/09/07 13:17:40;;;;;;;9.97;9.17;;;25.90;1.00;;;;;;6284272;28;20654;-54
2022/09/07 13:21:37;;;;;;;9.87;9.07;;;25.80;1.00;;;;;;6280607;28;20242;-53
2022/09/07 13:24:54;;;;;;;9.47;8.87;;;25.70;1.00;;;;;;6220737;28;20646;-53
2022/09/07 13:27:58;;;;;;;9.70;9.13;;;25.70;1.00;;;;;;6285474;28;20234;-53
2022/09/07 13:31:14;;;;;;;8.77;8.27;;;25.70;1.00;;;;;;6284012;28;20623;-53
2022/09/07 13:34:39;;;;;;;8.70;8.20;;;25.80;1.00;;;;;;6282590;28;20268;-56
2022/09/07 13:37:54;;;;;;;9.20;8.60;;;25.80;1.00;;;;;;6265384;28;20603;-54
2022/09/07 13:41:06;;;;;;;9.97;9.17;;;25.90;1.00;;;;;;6282407;28;20305;-55
2022/09/07 13:44:20;;;;;;;8.57;8.07;;;25.90;1.00;;;;;;6285304;28;20233;-53
2022/09/07 13:47:38;;;;;;;9.67;8.67;;;26.00;1.00;;;;;;6282364;28;20590;-54
2022/09/07 13:50:56;;;;;;;11.40;10.50;;;26.10;1.00;;;;;;6282906;28;20246;-54
2022/09/07 13:54:10;;;;;;;8.83;8.20;;;26.20;1.00;;;;;;6281278;28;20241;-54
2022/09/07 13:57:22;;;;;;;9.00;8.40;;;26.30;1.00;;;;;;6283557;28;20229;-55
2022/09/07 14:00:25;;;;;;;9.50;8.80;;;26.40;1.00;;;;;;6283778;28;20241;-54
2022/09/07 14:03:31;;;;;;;9.20;8.40;;;26.40;1.00;;;;;;6285014;28;20234;-54
2022/09/07 14:06:36;;;;;;;10.10;9.10;;;26.40;1.00;;;;;;6283120;28;20313;-54
2022/09/07 14:09:39;;;;;;;8.40;7.80;;;26.30;1.00;;;;;;6280321;28;20237;-54
2022/09/07 14:12:47;;;;;;;8.90;8.30;;;26.20;1.00;;;;;;6284059;28;20571;-54
2022/09/07 14:15:51;;;;;;;9.37;8.60;;;26.00;1.00;;;;;;6276182;28;20422;-54
2022/09/07 14:18:54;;;;;;;11.20;8.30;;;25.90;1.00;;;;;;6280843;28;20240;-54
2022/09/07 14:21:59;;;;;;;8.90;8.30;;;25.80;1.00;;;;;;6283129;28;20237;-54
2022/09/07 14:25:04;;;;;;;9.10;8.30;;;25.70;1.00;;;;;;6271324;28;20710;-53
2022/09/07 14:28:29;;;;;;;9.07;8.17;;;25.70;1.00;;;;;;6279732;28;20723;-55
2022/09/07 14:31:32;;;;;;;9.00;8.30;;;25.70;1.00;;;;;;6285454;28;20248;-54
2022/09/07 14:34:37;;;;;;;8.70;8.03;;;25.80;1.00;;;;;;6276921;28;20238;-54
2022/09/07 14:37:41;;;;;;;9.47;8.57;;;25.90;1.00;;;;;;6279967;28;20237;-52
2022/09/07 14:40:44;;;;;;;8.40;7.70;;;25.90;1.00;;;;;;6281493;28;20233;-54
2022/09/07 14:43:53;;;;;;;7.90;7.30;;;25.80;1.00;;;;;;6289811;28;20658;-55
2022/09/07 14:46:58;;;;;;;8.63;8.13;;;25.70;1.00;;;;;;6278497;28;20230;-54
2022/09/07 14:50:04;;;;;;;8.57;7.90;;;25.60;1.00;;;;;;6282431;28;20241;-54
2022/09/07 14:53:11;;;;;;;9.03;8.43;;;25.50;1.00;;;;;;6281758;28;20241;-54
2022/09/07 14:56:36;;;;;;;9.40;8.60;;;25.40;1.00;;;;;;6283072;28;20252;-53
2022/09/07 14:59:44;;;;;;;9.30;8.47;;;25.30;1.00;;;;;;6282932;28;20237;-53
2022/09/07 15:02:47;;;;;;;9.03;8.33;;;25.20;1.00;;;;;;6282239;28;20432;-55
2022/09/07 15:05:50;;;;;;;8.87;8.30;;;25.20;1.00;;;;;;6275444;28;20248;-55
2022/09/07 15:08:53;;;;;;;8.83;8.23;;;25.20;1.00;;;;;;6277053;28;20237;-55
2022/09/07 15:12:17;;;;;;;8.27;7.87;;;25.20;1.00;;;;;;6278833;28;20236;-53
2022/09/07 15:15:24;;;;;;;9.47;8.67;;;25.30;1.00;;;;;;6275654;28;20237;-53
2022/09/07 15:18:56;;;;;;;8.40;7.80;;;25.50;1.00;;;;;;6281635;28;20358;-54
2022/09/07 15:21:59;;;;;;;8.33;7.70;;;25.80;1.00;;;;;;6244406;28;20244;-53
2022/09/07 15:25:02;;;;;;;8.67;7.87;;;25.90;1.00;;;;;;6282527;28;20867;-55
2022/09/07 15:28:06;;;;;;;8.77;7.90;;;26.00;1.00;;;;;;6282784;28;20248;-54
2022/09/07 15:31:11;;;;;;;8.83;8.23;;;26.20;1.00;;;;;;6282116;28;20256;-53
2022/09/07 15:34:38;;;;;;;8.17;7.63;;;26.30;1.00;;;;;;6279688;28;20284;-53
2022/09/07 15:37:41;;;;;;;9.40;8.43;;;26.20;1.00;;;;;;6282209;28;20241;-54
2022/09/07 15:41:04;;;;;;;10.07;7.87;;;26.30;1.00;;;;;;6280966;28;20248;-54
2022/09/07 15:44:25;;;;;;;8.90;8.20;;;26.40;1.00;;;;;;6280145;28;20233;-55
2022/09/07 15:47:31;;;;;;;9.23;8.47;;;26.40;1.00;;;;;;6280635;28;20233;-53
2022/09/07 15:51:01;;;;;;;8.13;7.73;;;26.40;1.00;;;;;;6274872;28;20611;-55
2022/09/07 15:54:08;;;;;;;8.77;8.13;;;26.40;1.00;;;;;;6280964;28;20238;-54
2022/09/07 15:57:16;;;;;;;8.10;7.47;;;26.40;1.00;;;;;;6283139;28;20256;-54
2022/09/07 16:00:39;;;;;;;8.37;7.73;;;26.20;1.00;;;;;;6282390;28;20833;-53
2022/09/07 16:03:43;;;;;;;8.67;7.77;;;26.10;1.00;;;;;;6268819;28;20226;-55
2022/09/07 16:06:50;;;;;;;9.13;8.43;;;26.00;1.00;;;;;;6281947;28;20272;-53
2022/09/07 16:09:53;;;;;;;8.77;8.07;;;25.90;1.00;;;;;;6268324;28;20388;-54
2022/09/07 16:12:56;;;;;;;7.97;7.53;;;25.70;1.00;;;;;;6274639;28;20238;-53
2022/09/07 16:16:06;;;;;;;8.97;8.37;;;25.60;1.00;;;;;;6284076;28;20236;-54
2022/09/07 16:19:15;;;;;;;8.13;7.63;;;25.50;1.00;;;;;;6279734;28;20653;-55
2022/09/07 16:22:22;;;;;;;8.53;7.87;;;25.30;1.00;;;;;;6284173;28;20310;-55
2022/09/07 16:25:56;;;;;;;9.13;8.27;;;25.10;1.00;;;;;;6285148;28;20246;-54
2022/09/07 16:28:59;;;;;;;9.33;7.90;;;25.00;1.00;;;;;;6276629;28;20226;-56
2022/09/07 16:32:03;;;;;;;9.73;8.77;;;24.90;1.00;;;;;;6279018;28;20240;-54
2022/09/07 16:35:41;;;;;;;8.30;7.70;;;24.80;1.00;;;;;;6277557;28;20234;-54
2022/09/07 16:38:47;;;;;;;8.13;7.63;;;24.70;1.00;;;;;;6274198;28;20237;-55